sensor_id;sensor_type;location;lat;lon;timestamp;pressure;altitude;pressure_sealevel;temperature;humidity
70370;BME280;57790;51.356;-2.906;2023-07-31T00:00:55;100870.94;;;17.89;100.00
70370;BME280;57790;51.356;-2.906;2023-07-31T00:03:55;100880.22;;;17.86;100.00
70370;BME280;57790;51.356;-2.906;2023-07-31T00:06:56;100882.50;;;17.89;100.00
70370;BME280;57790;51.356;-2.906;2023-07-31T00:09:56;100882.72;;;17.94;100.00
70370;BME280;57790;51.356;-2.906;2023-07-31T00:12:57;100883.09;;;17.91;100.00
70370;BME280;57790;51.356;-2.906;2023-07-31T00:15:57;100887.22;;;17.94;100.00
70370;BME280;57790;51.356;-2.906;2023-07-31T00:18:57;100869.47;;;17.93;100.00
70370;BME280;57790;51.356;-2.906;2023-07-31T00:21:58;100875.66;;;17.93;100.00
70370;BME280;57790;51.356;-2.906;2023-07-31T00:24:58;100873.41;;;17.90;100.00
70370;BME280;57790;51.356;-2.906;2023-07-31T00:27:59;100861.84;;;17.90;100.00
70370;BME280;57790;51.356;-2.906;2023-07-31T00:31:00;100852.56;;;17.92;100.00
70370;BME280;57790;51.356;-2.906;2023-07-31T00:34:01;100848.66;;;17.95;100.00
70370;BME280;57790;51.356;-2.906;2023-07-31T00:37:02;100849.88;;;17.92;100.00
70370;BME280;57790;51.356;-2.906;2023-07-31T00:40:03;100849.88;;;17.92;100.00
70370;BME280;57790;51.356;-2.906;2023-07-31T00:43:04;100848.22;;;17.91;100.00
70370;BME280;57790;51.356;-2.906;2023-07-31T00:46:04;100841.81;;;17.92;100.00
70370;BME280;57790;51.356;-2.906;2023-07-31T00:49:05;100863.28;;;17.92;100.00
70370;BME280;57790;51.356;-2.906;2023-07-31T00:52:06;100856.72;;;17.95;100.00
70370;BME280;57790;51.356;-2.906;2023-07-31T00:55:07;100852.34;;;17.94;100.00
70370;BME280;57790;51.356;-2.906;2023-07-31T00:58:08;100849.88;;;17.92;100.00
70370;BME280;57790;51.356;-2.906;2023-07-31T01:01:08;100850.91;;;17.91;100.00
70370;BME280;57790;51.356;-2.906;2023-07-31T01:04:09;100841.81;;;17.92;100.00
70370;BME280;57790;51.356;-2.906;2023-07-31T01:07:42;100837.28;;;17.93;100.00
70370;BME280;57790;51.356;-2.906;2023-07-31T01:11:48;100841.81;;;17.92;100.00
70370;BME280;57790;51.356;-2.906;2023-07-31T01:14:28;100839.97;;;17.93;100.00
70370;BME280;57790;51.356;-2.906;2023-07-31T01:17:29;100830.06;;;17.93;100.00
70370;BME280;57790;51.356;-2.906;2023-07-31T01:20:30;100823.88;;;17.93;100.00
70370;BME280;57790;51.356;-2.906;2023-07-31T01:26:57;100844.13;;;17.95;100.00
70370;BME280;57790;51.356;-2.906;2023-07-31T01:30:16;100839.56;;;17.96;100.00
70370;BME280;57790;51.356;-2.906;2023-07-31T01:33:20;100834.44;;;17.94;100.00
70370;BME280;57790;51.356;-2.906;2023-07-31T01:36:20;100831.91;;;17.93;100.00
70370;BME280;57790;51.356;-2.906;2023-07-31T01:39:21;100827.59;;;17.92;100.00
70370;BME280;57790;51.356;-2.906;2023-07-31T01:42:21;100829.44;;;17.91;100.00
70370;BME280;57790;51.356;-2.906;2023-07-31T01:45:21;100838.13;;;17.93;100.00
70370;BME280;57790;51.356;-2.906;2023-07-31T01:48:22;100838.31;;;17.92;100.00
70370;BME280;57790;51.356;-2.906;2023-07-31T01:51:22;100821.19;;;17.93;100.00
70370;BME280;57790;51.356;-2.906;2023-07-31T01:54:22;100824.31;;;17.96;100.00
70370;BME280;57790;51.356;-2.906;2023-07-31T01:57:23;100845.34;;;17.99;100.00
70370;BME280;57790;51.356;-2.906;2023-07-31T02:00:23;100830.47;;;18.03;100.00
70370;BME280;57790;51.356;-2.906;2023-07-31T02:03:24;100824.91;;;18.05;100.00
70370;BME280;57790;51.356;-2.906;2023-07-31T02:06:24;100819.53;;;18.05;100.00
70370;BME280;57790;51.356;-2.906;2023-07-31T02:09:25;100826.53;;;18.06;100.00
70370;BME280;57790;51.356;-2.906;2023-07-31T02:12:25;100818.69;;;18.04;100.00
70370;BME280;57790;51.356;-2.906;2023-07-31T02:15:25;100814.97;;;18.05;100.00
70370;BME280;57790;51.356;-2.906;2023-07-31T02:18:26;100810.66;;;18.04;100.00
70370;BME280;57790;51.356;-2.906;2023-07-31T02:21:26;100811.69;;;18.03;100.00
70370;BME280;57790;51.356;-2.906;2023-07-31T02:24:27;100803.44;;;18.05;100.00
70370;BME280;57790;51.356;-2.906;2023-07-31T02:27:27;100794.78;;;18.03;100.00
70370;BME280;57790;51.356;-2.906;2023-07-31T02:30:27;100794.56;;;18.04;100.00
70370;BME280;57790;51.356;-2.906;2023-07-31T02:33:28;100785.69;;;18.04;100.00
70370;BME280;57790;51.356;-2.906;2023-07-31T02:36:28;100789.19;;;18.04;100.00
70370;BME280;57790;51.356;-2.906;2023-07-31T02:39:29;100785.25;;;18.07;100.00
70370;BME280;57790;51.356;-2.906;2023-07-31T02:42:29;100789.41;;;18.09;100.00
70370;BME280;57790;51.356;-2.906;2023-07-31T02:45:29;100783.59;;;18.06;100.00
70370;BME280;57790;51.356;-2.906;2023-07-31T02:48:30;100783.59;;;18.06;100.00
70370;BME280;57790;51.356;-2.906;2023-07-31T02:51:30;100779.28;;;18.05;100.00
70370;BME280;57790;51.356;-2.906;2023-07-31T02:54:31;100782.78;;;18.05;100.00
70370;BME280;57790;51.356;-2.906;2023-07-31T02:57:31;100780.09;;;18.05;100.00
70370;BME280;57790;51.356;-2.906;2023-07-31T03:00:31;100786.72;;;18.03;100.00
70370;BME280;57790;51.356;-2.906;2023-07-31T03:03:32;100786.50;;;18.04;100.00
70370;BME280;57790;51.356;-2.906;2023-07-31T03:06:32;100790.00;;;18.05;100.00
70370;BME280;57790;51.356;-2.906;2023-07-31T03:09:33;100785.47;;;18.05;100.00
70370;BME280;57790;51.356;-2.906;2023-07-31T03:12:33;100784.84;;;18.03;100.00
70370;BME280;57790;51.356;-2.906;2023-07-31T03:15:33;100774.13;;;18.03;100.00
70370;BME280;57790;51.356;-2.906;2023-07-31T03:18:34;100778.88;;;18.01;100.00
70370;BME280;57790;51.356;-2.906;2023-07-31T03:21:34;100786.31;;;17.99;100.00
70370;BME280;57790;51.356;-2.906;2023-07-31T03:24:34;100778.28;;;17.99;100.00
70370;BME280;57790;51.356;-2.906;2023-07-31T03:27:35;100776.19;;;18.01;100.00
70370;BME280;57790;51.356;-2.906;2023-07-31T03:30:36;100777.25;;;18.00;100.00
70370;BME280;57790;51.356;-2.906;2023-07-31T03:33:38;100767.34;;;18.01;100.00
70370;BME280;57790;51.356;-2.906;2023-07-31T03:36:38;100775.59;;;17.99;100.00
70370;BME280;57790;51.356;-2.906;2023-07-31T03:39:39;100767.53;;;17.99;100.00
70370;BME280;57790;51.356;-2.906;2023-07-31T03:42:39;100778.28;;;17.99;100.00
70370;BME280;57790;51.356;-2.906;2023-07-31T03:45:40;100766.94;;;17.97;100.00
70370;BME280;57790;51.356;-2.906;2023-07-31T03:48:40;100772.50;;;17.96;100.00
70370;BME280;57790;51.356;-2.906;2023-07-31T03:51:40;100772.50;;;17.96;100.00
70370;BME280;57790;51.356;-2.906;2023-07-31T03:54:41;100760.97;;;17.95;100.00
70370;BME280;57790;51.356;-2.906;2023-07-31T03:57:44;100767.97;;;17.96;100.00
70370;BME280;57790;51.356;-2.906;2023-07-31T04:00:45;100762.81;;;17.95;100.00
70370;BME280;57790;51.356;-2.906;2023-07-31T04:03:45;100748.59;;;17.94;100.00
70370;BME280;57790;51.356;-2.906;2023-07-31T04:06:46;100772.91;;;17.93;100.00
70370;BME280;57790;51.356;-2.906;2023-07-31T04:09:46;100780.78;;;17.94;100.00
70370;BME280;57790;51.356;-2.906;2023-07-31T04:12:46;100777.06;;;17.95;100.00
70370;BME280;57790;51.356;-2.906;2023-07-31T04:15:50;100775.41;;;17.94;100.00
70370;BME280;57790;51.356;-2.906;2023-07-31T04:18:54;100779.91;;;17.94;100.00
70370;BME280;57790;51.356;-2.906;2023-07-31T04:21:54;100779.31;;;17.92;100.00
70370;BME280;57790;51.356;-2.906;2023-07-31T04:24:55;100764.03;;;17.92;100.00
70370;BME280;57790;51.356;-2.906;2023-07-31T04:27:55;100761.56;;;17.91;100.00
70370;BME280;57790;51.356;-2.906;2023-07-31T04:30:55;100764.69;;;17.94;100.00
70370;BME280;57790;51.356;-2.906;2023-07-31T04:33:56;100765.91;;;17.92;100.00
70370;BME280;57790;51.356;-2.906;2023-07-31T04:36:56;100772.50;;;17.89;100.00
70370;BME280;57790;51.356;-2.906;2023-07-31T04:39:57;100769.63;;;17.91;100.00
70370;BME280;57790;51.356;-2.906;2023-07-31T04:42:57;100772.50;;;17.89;100.00
70370;BME280;57790;51.356;-2.906;2023-07-31T04:45:57;100762.81;;;17.88;100.00
70370;BME280;57790;51.356;-2.906;2023-07-31T04:48:58;100763.84;;;17.87;100.00
70370;BME280;57790;51.356;-2.906;2023-07-31T04:51:58;100763.03;;;17.87;100.00
70370;BME280;57790;51.356;-2.906;2023-07-31T04:54:59;100758.69;;;17.86;100.00
70370;BME280;57790;51.356;-2.906;2023-07-31T04:57:59;100763.25;;;17.85;100.00
70370;BME280;57790;51.356;-2.906;2023-07-31T05:01:00;100765.09;;;17.84;100.00
70370;BME280;57790;51.356;-2.906;2023-07-31T05:04:00;100753.34;;;17.86;100.00
70370;BME280;57790;51.356;-2.906;2023-07-31T05:07:01;100751.47;;;17.86;100.00
70370;BME280;57790;51.356;-2.906;2023-07-31T05:10:01;100750.66;;;17.86;100.00
70370;BME280;57790;51.356;-2.906;2023-07-31T05:13:01;100750.88;;;17.84;100.00
70370;BME280;57790;51.356;-2.906;2023-07-31T05:16:02;100746.94;;;17.87;100.00
70370;BME280;57790;51.356;-2.906;2023-07-31T05:19:02;100744.47;;;17.85;100.00
70370;BME280;57790;51.356;-2.906;2023-07-31T05:22:03;100737.47;;;17.84;100.00
70370;BME280;57790;51.356;-2.906;2023-07-31T05:25:03;100734.56;;;17.86;100.00
70370;BME280;57790;51.356;-2.906;2023-07-31T05:28:04;100754.38;;;17.84;100.00
70370;BME280;57790;51.356;-2.906;2023-07-31T05:31:05;100764.50;;;17.82;100.00
70370;BME280;57790;51.356;-2.906;2023-07-31T05:34:05;100748.19;;;17.84;100.00
70370;BME280;57790;51.356;-2.906;2023-07-31T05:37:05;100746.53;;;17.83;100.00
70370;BME280;57790;51.356;-2.906;2023-07-31T05:40:06;100747.38;;;17.83;100.00
70370;BME280;57790;51.356;-2.906;2023-07-31T05:43:07;100742.00;;;17.83;100.00
70370;BME280;57790;51.356;-2.906;2023-07-31T05:46:08;100740.97;;;17.84;100.00
70370;BME280;57790;51.356;-2.906;2023-07-31T05:49:09;100730.03;;;17.86;100.00
70370;BME280;57790;51.356;-2.906;2023-07-31T05:52:09;100719.50;;;17.84;100.00
70370;BME280;57790;51.356;-2.906;2023-07-31T05:55:10;100718.69;;;17.84;100.00
70370;BME280;57790;51.356;-2.906;2023-07-31T05:58:10;100723.00;;;17.85;100.00
70370;BME280;57790;51.356;-2.906;2023-07-31T06:01:11;100722.19;;;17.84;100.00
70370;BME280;57790;51.356;-2.906;2023-07-31T06:04:11;100723.84;;;17.86;100.00
70370;BME280;57790;51.356;-2.906;2023-07-31T06:07:12;100726.31;;;17.87;100.00
70370;BME280;57790;51.356;-2.906;2023-07-31T06:10:12;100722.19;;;17.84;100.00
70370;BME280;57790;51.356;-2.906;2023-07-31T06:13:13;100725.09;;;17.83;100.00
70370;BME280;57790;51.356;-2.906;2023-07-31T06:16:14;100722.41;;;17.83;100.00
70370;BME280;57790;51.356;-2.906;2023-07-31T06:19:14;100716.22;;;17.82;100.00
70370;BME280;57790;51.356;-2.906;2023-07-31T06:22:15;100718.28;;;17.80;100.00
70370;BME280;57790;51.356;-2.906;2023-07-31T06:25:15;100705.69;;;17.81;100.00
70370;BME280;57790;51.356;-2.906;2023-07-31T06:28:16;100705.69;;;17.81;100.00
70370;BME280;57790;51.356;-2.906;2023-07-31T06:31:16;100712.94;;;17.80;100.00
70370;BME280;57790;51.356;-2.906;2023-07-31T06:34:20;100725.50;;;17.80;100.00
70370;BME280;57790;51.356;-2.906;2023-07-31T06:37:20;100719.72;;;17.83;100.00
70370;BME280;57790;51.356;-2.906;2023-07-31T06:40:22;100725.91;;;17.83;100.00
70370;BME280;57790;51.356;-2.906;2023-07-31T06:43:22;100721.38;;;17.84;100.00
70370;BME280;57790;51.356;-2.906;2023-07-31T06:46:22;100718.69;;;17.84;100.00
70370;BME280;57790;51.356;-2.906;2023-07-31T06:49:23;100712.28;;;17.85;100.00
70370;BME280;57790;51.356;-2.906;2023-07-31T06:52:23;100703.59;;;17.90;100.00
70370;BME280;57790;51.356;-2.906;2023-07-31T06:55:24;100694.50;;;17.91;100.00
70370;BME280;57790;51.356;-2.906;2023-07-31T06:58:24;100693.47;;;17.92;100.00
70370;BME280;57790;51.356;-2.906;2023-07-31T07:01:25;100700.69;;;17.91;100.00
70370;BME280;57790;51.356;-2.906;2023-07-31T07:04:25;100685.44;;;17.92;100.00
70370;BME280;57790;51.356;-2.906;2023-07-31T07:07:26;100689.56;;;17.94;100.00
70370;BME280;57790;51.356;-2.906;2023-07-31T07:10:27;100700.09;;;17.96;100.00
70370;BME280;57790;51.356;-2.906;2023-07-31T07:13:27;100708.13;;;17.96;100.00
70370;BME280;57790;51.356;-2.906;2023-07-31T07:16:28;100695.31;;;17.98;100.00
70370;BME280;57790;51.356;-2.906;2023-07-31T07:19:29;100695.09;;;17.99;100.00
70370;BME280;57790;51.356;-2.906;2023-07-31T07:22:29;100702.94;;;18.01;100.00
70370;BME280;57790;51.356;-2.906;2023-07-31T07:25:29;100705.41;;;18.02;100.00
70370;BME280;57790;51.356;-2.906;2023-07-31T07:28:30;100698.41;;;18.01;100.00
70370;BME280;57790;51.356;-2.906;2023-07-31T07:31:30;100700.25;;;18.01;100.00
70370;BME280;57790;51.356;-2.906;2023-07-31T07:34:31;100708.91;;;18.03;100.00
70370;BME280;57790;51.356;-2.906;2023-07-31T07:37:31;100706.22;;;18.03;100.00
70370;BME280;57790;51.356;-2.906;2023-07-31T07:40:31;100713.25;;;18.04;100.00
70370;BME280;57790;51.356;-2.906;2023-07-31T07:43:32;100700.66;;;18.04;100.00
70370;BME280;57790;51.356;-2.906;2023-07-31T07:46:32;100690.53;;;18.06;100.00
70370;BME280;57790;51.356;-2.906;2023-07-31T07:49:34;100684.13;;;18.07;100.00
70370;BME280;57790;51.356;-2.906;2023-07-31T07:52:35;100688.47;;;18.08;100.00
70370;BME280;57790;51.356;-2.906;2023-07-31T07:55:35;100692.16;;;18.07;100.00
70370;BME280;57790;51.356;-2.906;2023-07-31T07:58:35;100682.06;;;18.09;100.00
70370;BME280;57790;51.356;-2.906;2023-07-31T08:01:36;100678.56;;;18.09;100.00
70370;BME280;57790;51.356;-2.906;2023-07-31T08:04:36;100669.69;;;18.08;100.00
70370;BME280;57790;51.356;-2.906;2023-07-31T08:07:36;100660.19;;;18.12;100.00
70370;BME280;57790;51.356;-2.906;2023-07-31T08:10:37;100647.81;;;18.11;100.00
70370;BME280;57790;51.356;-2.906;2023-07-31T08:13:37;100641.41;;;18.12;100.00
70370;BME280;57790;51.356;-2.906;2023-07-31T08:16:38;100629.63;;;18.13;100.00
70370;BME280;57790;51.356;-2.906;2023-07-31T08:19:38;100634.16;;;18.13;100.00
70370;BME280;57790;51.356;-2.906;2023-07-31T08:22:39;100651.09;;;18.13;100.00
70370;BME280;57790;51.356;-2.906;2023-07-31T08:25:39;100672.34;;;18.15;100.00
70370;BME280;57790;51.356;-2.906;2023-07-31T08:28:40;100661.38;;;18.17;100.00
70370;BME280;57790;51.356;-2.906;2023-07-31T08:31:40;100670.88;;;18.19;100.00
70370;BME280;57790;51.356;-2.906;2023-07-31T08:34:40;100692.34;;;18.19;100.00
70370;BME280;57790;51.356;-2.906;2023-07-31T08:37:41;100687.38;;;18.23;100.00
70370;BME280;57790;51.356;-2.906;2023-07-31T08:40:42;100655.19;;;18.23;100.00
70370;BME280;57790;51.356;-2.906;2023-07-31T08:43:44;100648.97;;;18.22;100.00
70370;BME280;57790;51.356;-2.906;2023-07-31T08:46:46;100652.69;;;18.21;100.00
70370;BME280;57790;51.356;-2.906;2023-07-31T08:49:47;100664.06;;;18.23;100.00
70370;BME280;57790;51.356;-2.906;2023-07-31T08:52:50;100685.31;;;18.25;100.00
70370;BME280;57790;51.356;-2.906;2023-07-31T08:55:52;100689.63;;;18.26;100.00
70370;BME280;57790;51.356;-2.906;2023-07-31T08:58:54;100701.78;;;18.28;100.00
70370;BME280;57790;51.356;-2.906;2023-07-31T09:01:55;100680.31;;;18.28;100.00
70370;BME280;57790;51.356;-2.906;2023-07-31T09:04:58;100688.38;;;18.28;100.00
70370;BME280;57790;51.356;-2.906;2023-07-31T09:08:00;100675.78;;;18.29;100.00
70370;BME280;57790;51.356;-2.906;2023-07-31T09:11:02;100672.88;;;18.30;100.00
70370;BME280;57790;51.356;-2.906;2023-07-31T09:14:05;100649.53;;;18.31;100.00
70370;BME280;57790;51.356;-2.906;2023-07-31T09:17:09;100650.16;;;18.33;100.00
70370;BME280;57790;51.356;-2.906;2023-07-31T09:20:20;100657.97;;;18.34;100.00
70370;BME280;57790;51.356;-2.906;2023-07-31T09:23:20;100631.34;;;18.33;100.00
70370;BME280;57790;51.356;-2.906;2023-07-31T09:29:29;100631.56;;;18.31;100.00
70370;BME280;57790;51.356;-2.906;2023-07-31T09:32:31;100640.00;;;18.35;100.00
70370;BME280;57790;51.356;-2.906;2023-07-31T09:35:34;100647.66;;;18.38;100.00
70370;BME280;57790;51.356;-2.906;2023-07-31T09:38:34;100661.69;;;18.40;100.00
70370;BME280;57790;51.356;-2.906;2023-07-31T09:41:40;100653.41;;;18.41;100.00
70370;BME280;57790;51.356;-2.906;2023-07-31T09:44:41;100661.47;;;18.41;100.00
70370;BME280;57790;51.356;-2.906;2023-07-31T09:47:46;100679.00;;;18.44;100.00
70370;BME280;57790;51.356;-2.906;2023-07-31T09:50:49;100666.19;;;18.46;100.00
70370;BME280;57790;51.356;-2.906;2023-07-31T09:53:52;100703.97;;;18.44;100.00
70370;BME280;57790;51.356;-2.906;2023-07-31T09:56:54;100718.63;;;18.49;100.00
70370;BME280;57790;51.356;-2.906;2023-07-31T09:59:55;100709.72;;;18.48;100.00
70370;BME280;57790;51.356;-2.906;2023-07-31T10:02:58;100730.59;;;18.53;100.00
70370;BME280;57790;51.356;-2.906;2023-07-31T10:06:00;100718.00;;;18.53;100.00
70370;BME280;57790;51.356;-2.906;2023-07-31T10:09:09;100725.59;;;18.56;100.00
70370;BME280;57790;51.356;-2.906;2023-07-31T10:12:13;100714.88;;;18.56;100.00
70370;BME280;57790;51.356;-2.906;2023-07-31T10:15:15;100714.44;;;18.59;100.00
70370;BME280;57790;51.356;-2.906;2023-07-31T10:18:16;100732.78;;;18.62;100.00
70370;BME280;57790;51.356;-2.906;2023-07-31T10:21:18;100734.25;;;18.65;100.00
70370;BME280;57790;51.356;-2.906;2023-07-31T10:24:19;100717.50;;;18.63;100.00
70370;BME280;57790;51.356;-2.906;2023-07-31T10:27:20;100724.72;;;18.62;100.00
70370;BME280;57790;51.356;-2.906;2023-07-31T10:30:29;100722.28;;;18.61;100.00
70370;BME280;57790;51.356;-2.906;2023-07-31T10:33:30;100712.13;;;18.63;100.00
70370;BME280;57790;51.356;-2.906;2023-07-31T10:36:31;100704.53;;;18.66;100.00
70370;BME280;57790;51.356;-2.906;2023-07-31T10:39:36;100701.84;;;18.66;100.00
70370;BME280;57790;51.356;-2.906;2023-07-31T10:42:48;100716.69;;;18.69;100.00
70370;BME280;57790;51.356;-2.906;2023-07-31T10:45:49;100718.56;;;18.68;100.00
70370;BME280;57790;51.356;-2.906;2023-07-31T10:48:58;100718.13;;;18.65;100.00
70370;BME280;57790;51.356;-2.906;2023-07-31T10:51:59;100710.06;;;18.65;100.00
70370;BME280;57790;51.356;-2.906;2023-07-31T10:55:16;100724.13;;;18.67;100.00
70370;BME280;57790;51.356;-2.906;2023-07-31T10:58:19;100708.84;;;18.67;100.00
70370;BME280;57790;51.356;-2.906;2023-07-31T11:01:21;100684.88;;;18.66;100.00
70370;BME280;57790;51.356;-2.906;2023-07-31T11:04:25;100679.31;;;18.67;100.00
70370;BME280;57790;51.356;-2.906;2023-07-31T11:07:46;100669.16;;;18.69;100.00
70370;BME280;57790;51.356;-2.906;2023-07-31T11:10:48;100648.50;;;18.70;100.00
70370;BME280;57790;51.356;-2.906;2023-07-31T11:13:51;100649.53;;;18.69;100.00
70370;BME280;57790;51.356;-2.906;2023-07-31T11:16:52;100653.28;;;18.68;100.00
70370;BME280;57790;51.356;-2.906;2023-07-31T11:19:52;100666.47;;;18.69;100.00
70370;BME280;57790;51.356;-2.906;2023-07-31T11:22:53;100647.91;;;18.68;100.00
70370;BME280;57790;51.356;-2.906;2023-07-31T11:25:59;100640.25;;;18.65;100.00
70370;BME280;57790;51.356;-2.906;2023-07-31T11:28:59;100643.75;;;18.65;100.00
70370;BME280;57790;51.356;-2.906;2023-07-31T11:31:59;100624.38;;;18.63;100.00
70370;BME280;57790;51.356;-2.906;2023-07-31T11:35:00;100606.81;;;18.61;100.00
70370;BME280;57790;51.356;-2.906;2023-07-31T11:38:01;100606.19;;;18.59;100.00
70370;BME280;57790;51.356;-2.906;2023-07-31T11:41:03;100617.59;;;18.54;100.00
70370;BME280;57790;51.356;-2.906;2023-07-31T11:44:03;100620.28;;;18.54;100.00
70370;BME280;57790;51.356;-2.906;2023-07-31T11:47:04;100609.78;;;18.53;100.00
70370;BME280;57790;51.356;-2.906;2023-07-31T11:50:06;100608.31;;;18.50;100.00
70370;BME280;57790;51.356;-2.906;2023-07-31T11:53:07;100606.06;;;18.47;100.00
70370;BME280;57790;51.356;-2.906;2023-07-31T11:56:13;100594.72;;;18.45;100.00
70370;BME280;57790;51.356;-2.906;2023-07-31T11:59:13;100616.44;;;18.43;100.00
70370;BME280;57790;51.356;-2.906;2023-07-31T12:02:14;100638.94;;;18.42;100.00
70370;BME280;57790;51.356;-2.906;2023-07-31T12:05:15;100627.81;;;18.39;100.00
70370;BME280;57790;51.356;-2.906;2023-07-31T12:08:16;100626.19;;;18.38;100.00
70370;BME280;57790;51.356;-2.906;2023-07-31T12:11:16;100572.91;;;18.35;100.00
70370;BME280;57790;51.356;-2.906;2023-07-31T12:14:28;100575.00;;;18.33;100.00
70370;BME280;57790;51.356;-2.906;2023-07-31T12:17:31;100593.78;;;18.33;100.00
70370;BME280;57790;51.356;-2.906;2023-07-31T12:20:32;100598.97;;;18.28;100.00
70370;BME280;57790;51.356;-2.906;2023-07-31T12:23:34;100629.78;;;18.25;100.00
70370;BME280;57790;51.356;-2.906;2023-07-31T12:26:35;100650.63;;;18.23;100.00
70370;BME280;57790;51.356;-2.906;2023-07-31T12:29:35;100658.69;;;18.23;100.00
70370;BME280;57790;51.356;-2.906;2023-07-31T12:32:36;100663.41;;;18.21;100.00
70370;BME280;57790;51.356;-2.906;2023-07-31T12:35:38;100660.53;;;18.23;100.00
70370;BME280;57790;51.356;-2.906;2023-07-31T12:38:41;100647.53;;;18.20;100.00
70370;BME280;57790;51.356;-2.906;2023-07-31T12:41:41;100605.84;;;18.17;100.00
70370;BME280;57790;51.356;-2.906;2023-07-31T12:44:42;100572.84;;;18.17;100.00
70370;BME280;57790;51.356;-2.906;2023-07-31T12:47:42;100543.75;;;18.13;100.00
70370;BME280;57790;51.356;-2.906;2023-07-31T12:50:42;100559.84;;;18.13;100.00
70370;BME280;57790;51.356;-2.906;2023-07-31T12:53:43;100543.75;;;18.13;100.00
70370;BME280;57790;51.356;-2.906;2023-07-31T12:56:43;100543.16;;;18.11;100.00
70370;BME280;57790;51.356;-2.906;2023-07-31T12:59:45;100565.66;;;18.10;100.00
70370;BME280;57790;51.356;-2.906;2023-07-31T13:02:45;100561.34;;;18.09;100.00
70370;BME280;57790;51.356;-2.906;2023-07-31T13:05:45;100569.38;;;18.09;100.00
70370;BME280;57790;51.356;-2.906;2023-07-31T13:08:46;100573.09;;;18.08;100.00
70370;BME280;57790;51.356;-2.906;2023-07-31T13:11:46;100565.66;;;18.10;100.00
70370;BME280;57790;51.356;-2.906;2023-07-31T13:14:46;100539.06;;;18.09;100.00
70370;BME280;57790;51.356;-2.906;2023-07-31T13:17:47;100588.16;;;18.09;100.00
70370;BME280;57790;51.356;-2.906;2023-07-31T13:20:47;100592.72;;;18.09;100.00
70370;BME280;57790;51.356;-2.906;2023-07-31T13:23:48;100571.44;;;18.07;100.00
70370;BME280;57790;51.356;-2.906;2023-07-31T13:26:48;100568.75;;;18.07;100.00
70370;BME280;57790;51.356;-2.906;2023-07-31T13:29:48;100582.16;;;18.07;100.00
70370;BME280;57790;51.356;-2.906;2023-07-31T13:32:49;100565.25;;;18.07;100.00
70370;BME280;57790;51.356;-2.906;2023-07-31T13:35:49;100572.47;;;18.06;100.00
70370;BME280;57790;51.356;-2.906;2023-07-31T13:38:50;100582.16;;;18.07;100.00
70370;BME280;57790;51.356;-2.906;2023-07-31T13:41:50;100565.25;;;18.07;100.00
70370;BME280;57790;51.356;-2.906;2023-07-31T13:44:50;100563.19;;;18.09;100.00
70370;BME280;57790;51.356;-2.906;2023-07-31T13:47:51;100566.88;;;18.08;100.00
70370;BME280;57790;51.356;-2.906;2023-07-31T13:50:51;100553.28;;;18.09;100.00
70370;BME280;57790;51.356;-2.906;2023-07-31T13:53:52;100554.50;;;18.13;100.00
70370;BME280;57790;51.356;-2.906;2023-07-31T13:56:53;100546.81;;;18.17;100.00
70370;BME280;57790;51.356;-2.906;2023-07-31T13:59:53;100544.53;;;18.21;100.00
70370;BME280;57790;51.356;-2.906;2023-07-31T14:02:53;100560.81;;;18.26;100.00
70370;BME280;57790;51.356;-2.906;2023-07-31T14:05:54;100561.78;;;18.31;100.00
70370;BME280;57790;51.356;-2.906;2023-07-31T14:08:55;100557.41;;;18.37;100.00
70370;BME280;57790;51.356;-2.906;2023-07-31T14:11:56;100554.31;;;18.40;100.00
70370;BME280;57790;51.356;-2.906;2023-07-31T14:14:56;100559.22;;;18.43;100.00
70370;BME280;57790;51.356;-2.906;2023-07-31T14:17:57;100552.16;;;18.49;100.00
70370;BME280;57790;51.356;-2.906;2023-07-31T14:20:57;100564.94;;;18.53;100.00
70370;BME280;57790;51.356;-2.906;2023-07-31T14:23:57;100537.66;;;18.56;100.00
70370;BME280;57790;51.356;-2.906;2023-07-31T14:26:58;100542.34;;;18.61;100.00
70370;BME280;57790;51.356;-2.906;2023-07-31T14:29:58;100541.06;;;18.70;100.00
70370;BME280;57790;51.356;-2.906;2023-07-31T14:32:58;100531.75;;;18.72;100.00
70370;BME280;57790;51.356;-2.906;2023-07-31T14:36:00;100543.69;;;18.77;100.00
70370;BME280;57790;51.356;-2.906;2023-07-31T14:39:02;100546.53;;;18.82;100.00
70370;BME280;57790;51.356;-2.906;2023-07-31T14:42:03;100532.06;;;18.83;100.00
70370;BME280;57790;51.356;-2.906;2023-07-31T14:45:04;100539.59;;;18.92;100.00
70370;BME280;57790;51.356;-2.906;2023-07-31T14:48:05;100527.81;;;18.93;100.00
70370;BME280;57790;51.356;-2.906;2023-07-31T14:51:05;100515.81;;;18.96;100.00
70370;BME280;57790;51.356;-2.906;2023-07-31T14:54:06;100531.94;;;18.96;100.00
70370;BME280;57790;51.356;-2.906;2023-07-31T14:57:06;100518.88;;;18.99;100.00
70370;BME280;57790;51.356;-2.906;2023-07-31T15:00:07;100512.38;;;19.07;100.00
70370;BME280;57790;51.356;-2.906;2023-07-31T15:03:08;100509.69;;;19.07;100.00
70370;BME280;57790;51.356;-2.906;2023-07-31T15:06:08;100511.56;;;19.07;100.00
70370;BME280;57790;51.356;-2.906;2023-07-31T15:09:09;100515.44;;;19.11;100.00
70370;BME280;57790;51.356;-2.906;2023-07-31T15:12:10;100493.28;;;19.15;100.00
70370;BME280;57790;51.356;-2.906;2023-07-31T15:15:10;100493.03;;;19.17;100.00
70370;BME280;57790;51.356;-2.906;2023-07-31T15:18:11;100489.91;;;19.20;100.00
70370;BME280;57790;51.356;-2.906;2023-07-31T15:21:11;100503.94;;;19.22;100.00
70370;BME280;57790;51.356;-2.906;2023-07-31T15:24:11;100484.00;;;19.29;100.00
70370;BME280;57790;51.356;-2.906;2023-07-31T15:27:12;100481.91;;;19.31;100.00
70370;BME280;57790;51.356;-2.906;2023-07-31T15:30:12;100485.19;;;19.33;100.00